Time;durP1;ratioP1;P1;durP2;ratioP2;P2;SDS_P1;SDS_P2;PMS_P1;PMS_P2;Temp;Humidity;BMP_temperature;BMP_pressure;BME280_temperature;BME280_humidity;BME280_pressure;Samples;Min_cycle;Max_cycle;Signal;HPM_P1;HPM_P2
2023/09/09 00:01:40;;;;;;;11.82;10.63;;;;;;;;;;4993621;28;20478;-68
2023/09/09 00:04:06;;;;;;;13.23;10.85;;;;;;;;;;4991211;28;20034;-68
2023/09/09 00:06:32;;;;;;;15.20;12.05;;;;;;;;;;4990947;28;20077;-69
2023/09/09 00:08:58;;;;;;;12.20;10.55;;;;;;;;;;4991358;28;20078;-69
2023/09/09 00:11:24;;;;;;;11.50;9.80;;;;;;;;;;4984394;28;20050;-69
2023/09/09 00:13:51;;;;;;;10.40;9.27;;;;;;;;;;4992291;28;20053;-69
2023/09/09 00:16:17;;;;;;;11.18;10.07;;;;;;;;;;4992351;28;20053;-69
2023/09/09 00:18:43;;;;;;;13.05;11.70;;;;;;;;;;4997377;28;20034;-68
2023/09/09 00:21:09;;;;;;;11.60;10.50;;;;;;;;;;4986539;28;20104;-68
2023/09/09 00:23:35;;;;;;;10.40;9.40;;;;;;;;;;4992289;28;20405;-68
2023/09/09 00:26:01;;;;;;;14.00;11.95;;;;;;;;;;4988291;28;20038;-68
2023/09/09 00:28:27;;;;;;;13.27;11.98;;;;;;;;;;4990054;28;20042;-68
2023/09/09 00:30:54;;;;;;;12.68;11.52;;;;;;;;;;4989814;28;20395;-68
2023/09/09 00:33:20;;;;;;;12.35;11.15;;;;;;;;;;5009133;28;20037;-68
2023/09/09 00:35:46;;;;;;;13.00;11.02;;;;;;;;;;4989652;28;21472;-68
2023/09/09 00:38:12;;;;;;;10.68;9.57;;;;;;;;;;4987882;28;20031;-68
2023/09/09 00:40:38;;;;;;;10.88;9.77;;;;;;;;;;4997170;28;20057;-68
2023/09/09 00:43:04;;;;;;;9.70;8.75;;;;;;;;;;5000620;28;20120;-68
2023/09/09 00:45:31;;;;;;;9.43;8.52;;;;;;;;;;5006846;28;20077;-68
2023/09/09 00:47:57;;;;;;;15.38;13.80;;;;;;;;;;4991503;28;20031;-68
2023/09/09 00:50:24;;;;;;;14.35;12.85;;;;;;;;;;4995214;28;20100;-68
2023/09/09 00:52:50;;;;;;;11.25;10.13;;;;;;;;;;5000564;28;20129;-68
2023/09/09 00:55:16;;;;;;;12.43;10.55;;;;;;;;;;4996307;28;20034;-68
2023/09/09 00:57:42;;;;;;;12.30;11.10;;;;;;;;;;4982921;28;20038;-68
2023/09/09 01:00:11;;;;;;;11.75;10.57;;;;;;;;;;4990064;28;20410;-68
2023/09/09 01:02:38;;;;;;;11.63;10.52;;;;;;;;;;4992543;28;20089;-69
2023/09/09 01:05:05;;;;;;;12.48;10.73;;;;;;;;;;4988477;28;20038;-68
2023/09/09 01:07:46;;;;;;;13.65;11.55;;;;;;;;;;4991131;28;20043;-68
2023/09/09 01:10:13;;;;;;;14.93;12.75;;;;;;;;;;4992228;28;20042;-68
2023/09/09 01:12:41;;;;;;;16.65;13.25;;;;;;;;;;5014404;28;20037;-68
2023/09/09 01:15:07;;;;;;;20.30;15.05;;;;;;;;;;5015312;28;20037;-68
2023/09/09 01:17:35;;;;;;;17.52;15.00;;;;;;;;;;5004009;28;20110;-68
2023/09/09 01:20:05;;;;;;;9.70;7.85;;;;;;;;;;5009143;28;20526;-68
2023/09/09 01:22:35;;;;;;;7.28;6.63;;;;;;;;;;5015094;28;20088;-68
2023/09/09 01:25:02;;;;;;;7.53;6.93;;;;;;;;;;5007349;28;20483;-69
2023/09/09 01:27:28;;;;;;;8.02;7.22;;;;;;;;;;5000641;28;20038;-69
2023/09/09 01:29:54;;;;;;;8.93;8.13;;;;;;;;;;5013861;28;20369;-69
2023/09/09 01:32:20;;;;;;;11.25;10.10;;;;;;;;;;5015176;28;20049;-69
2023/09/09 01:34:46;;;;;;;15.38;11.57;;;;;;;;;;5015012;28;20033;-69
2023/09/09 01:37:12;;;;;;;12.05;10.75;;;;;;;;;;5010619;28;20037;-69
2023/09/09 01:39:38;;;;;;;11.10;10.00;;;;;;;;;;5013724;28;20038;-68
2023/09/09 01:42:04;;;;;;;8.60;7.78;;;;;;;;;;5014970;28;20095;-68
2023/09/09 01:44:30;;;;;;;10.25;9.13;;;;;;;;;;5014540;28;20038;-68
2023/09/09 01:46:56;;;;;;;12.10;9.90;;;;;;;;;;5003627;28;20530;-68
2023/09/09 01:49:22;;;;;;;15.07;10.15;;;;;;;;;;5014123;28;20046;-68
2023/09/09 01:51:48;;;;;;;11.02;9.98;;;;;;;;;;5014862;28;20040;-68
2023/09/09 01:54:14;;;;;;;12.35;11.15;;;;;;;;;;5002481;28;20038;-68
2023/09/09 01:56:40;;;;;;;14.38;11.68;;;;;;;;;;4994337;28;20180;-68
2023/09/09 01:59:06;;;;;;;14.82;12.82;;;;;;;;;;5005620;28;20029;-68
2023/09/09 02:01:32;;;;;;;14.55;12.93;;;;;;;;;;5014444;28;20395;-68
2023/09/09 02:03:58;;;;;;;14.02;12.18;;;;;;;;;;4990754;28;20038;-68
2023/09/09 02:06:24;;;;;;;16.30;14.32;;;;;;;;;;5006524;28;20038;-68
2023/09/09 02:08:50;;;;;;;16.58;14.57;;;;;;;;;;5011185;28;20072;-68
2023/09/09 02:11:16;;;;;;;19.38;16.52;;;;;;;;;;5014515;28;20042;-68
2023/09/09 02:13:42;;;;;;;16.35;14.65;;;;;;;;;;5000145;28;20064;-68
2023/09/09 02:16:08;;;;;;;13.45;12.15;;;;;;;;;;5007564;28;20053;-68
2023/09/09 02:18:39;;;;;;;13.95;12.55;;;;;;;;;;5012273;28;20121;-68
2023/09/09 02:21:05;;;;;;;11.75;10.57;;;;;;;;;;5001465;28;20089;-68
2023/09/09 02:23:31;;;;;;;12.55;11.35;;;;;;;;;;5004386;28;20038;-68
2023/09/09 02:25:58;;;;;;;11.75;10.50;;;;;;;;;;5012806;28;20053;-68
2023/09/09 02:28:24;;;;;;;11.25;10.15;;;;;;;;;;5005115;28;20075;-68
2023/09/09 02:30:50;;;;;;;12.82;11.63;;;;;;;;;;5012202;28;20061;-68
2023/09/09 02:33:16;;;;;;;13.50;12.10;;;;;;;;;;5009717;28;20045;-68
2023/09/09 02:35:42;;;;;;;12.68;11.38;;;;;;;;;;5010625;28;20077;-68
2023/09/09 02:38:08;;;;;;;15.57;13.98;;;;;;;;;;5013107;28;20096;-68
2023/09/09 02:40:34;;;;;;;14.45;12.70;;;;;;;;;;5013364;28;20042;-68
2023/09/09 02:43:00;;;;;;;14.10;12.70;;;;;;;;;;4997312;28;20107;-68
2023/09/09 02:45:26;;;;;;;14.80;13.30;;;;;;;;;;4993037;28;20085;-68
2023/09/09 02:47:52;;;;;;;15.55;13.45;;;;;;;;;;5006927;28;20041;-68
2023/09/09 02:50:18;;;;;;;13.90;12.50;;;;;;;;;;5007350;28;20034;-68
2023/09/09 02:52:44;;;;;;;15.77;14.18;;;;;;;;;;5012705;28;20121;-68
2023/09/09 02:55:10;;;;;;;16.83;15.10;;;;;;;;;;5010825;28;20551;-68
2023/09/09 02:57:36;;;;;;;18.48;15.70;;;;;;;;;;5000807;28;20050;-68
2023/09/09 03:00:05;;;;;;;14.70;13.10;;;;;;;;;;5004122;28;20136;-68
2023/09/09 03:02:32;;;;;;;15.60;13.80;;;;;;;;;;5013499;28;20038;-68
2023/09/09 03:04:58;;;;;;;16.05;13.77;;;;;;;;;;5004874;28;20034;-68
2023/09/09 03:07:24;;;;;;;18.13;14.52;;;;;;;;;;5005730;28;20049;-68
2023/09/09 03:09:50;;;;;;;15.60;13.75;;;;;;;;;;4996898;28;20065;-68
2023/09/09 03:12:20;;;;;;;19.25;16.05;;;;;;;;;;5013422;28;20132;-68
2023/09/09 03:14:47;;;;;;;21.55;17.60;;;;;;;;;;5006871;28;20488;-68
2023/09/09 03:17:14;;;;;;;22.40;18.20;;;;;;;;;;4986356;28;20067;-68
2023/09/09 03:19:39;;;;;;;23.25;18.08;;;;;;;;;;4989716;28;20047;-68
2023/09/09 03:22:05;;;;;;;20.48;17.95;;;;;;;;;;5007421;28;20375;-68
2023/09/09 03:24:32;;;;;;;21.83;18.50;;;;;;;;;;5003462;28;20041;-68
2023/09/09 03:26:58;;;;;;;23.98;20.10;;;;;;;;;;5002355;28;20042;-68
2023/09/09 03:29:24;;;;;;;24.77;19.23;;;;;;;;;;5000858;28;20044;-68
2023/09/09 03:31:50;;;;;;;25.13;19.80;;;;;;;;;;5011390;28;20581;-68
2023/09/09 03:34:16;;;;;;;26.25;22.25;;;;;;;;;;5012248;28;20080;-68
2023/09/09 03:36:42;;;;;;;16.27;14.57;;;;;;;;;;4990028;28;20070;-68
2023/09/09 03:39:08;;;;;;;13.93;12.35;;;;;;;;;;4989192;28;20503;-68
2023/09/09 03:41:34;;;;;;;14.65;12.23;;;;;;;;;;5000676;28;20483;-68
2023/09/09 03:44:00;;;;;;;16.48;12.15;;;;;;;;;;5003696;28;20049;-68
2023/09/09 03:46:26;;;;;;;14.80;12.57;;;;;;;;;;4996050;28;20093;-68
2023/09/09 03:48:52;;;;;;;14.68;12.57;;;;;;;;;;4991521;28;20382;-68
2023/09/09 03:51:19;;;;;;;20.67;16.83;;;;;;;;;;4995211;28;20117;-68
2023/09/09 03:53:45;;;;;;;25.05;18.67;;;;;;;;;;4995968;28;20056;-68
2023/09/09 03:56:11;;;;;;;25.75;20.73;;;;;;;;;;4982844;28;20558;-68
2023/09/09 03:58:37;;;;;;;28.67;22.35;;;;;;;;;;4990303;28;20117;-68
2023/09/09 04:01:06;;;;;;;25.23;20.15;;;;;;;;;;4986680;28;20030;-68
2023/09/09 04:03:36;;;;;;;23.65;18.20;;;;;;;;;;4986522;28;20030;-69
2023/09/09 04:06:06;;;;;;;30.10;23.42;;;;;;;;;;4982468;28;20026;-68
2023/09/09 04:08:33;;;;;;;28.73;22.77;;;;;;;;;;4990889;28;20634;-69
2023/09/09 04:10:59;;;;;;;26.17;20.80;;;;;;;;;;4983177;28;20081;-69
2023/09/09 04:13:25;;;;;;;18.90;15.50;;;;;;;;;;4986879;28;20046;-69
2023/09/09 04:15:54;;;;;;;14.90;12.60;;;;;;;;;;4988586;28;20050;-69
2023/09/09 04:18:20;;;;;;;20.52;16.42;;;;;;;;;;4992158;28;20038;-69
2023/09/09 04:20:46;;;;;;;19.00;15.15;;;;;;;;;;4989507;28;20050;-69
2023/09/09 04:23:12;;;;;;;14.73;12.80;;;;;;;;;;4981454;28;20042;-69
2023/09/09 04:25:38;;;;;;;19.70;16.20;;;;;;;;;;4984790;28;20043;-68
2023/09/09 04:28:06;;;;;;;22.80;18.48;;;;;;;;;;4997756;28;20040;-68
2023/09/09 04:30:32;;;;;;;22.45;18.00;;;;;;;;;;4986097;28;20051;-68
2023/09/09 04:32:58;;;;;;;21.65;16.98;;;;;;;;;;4986852;28;20031;-68
2023/09/09 04:35:24;;;;;;;21.13;16.65;;;;;;;;;;4987438;28;20509;-68
2023/09/09 04:37:50;;;;;;;18.10;14.48;;;;;;;;;;4989144;28;20066;-68
2023/09/09 04:40:16;;;;;;;22.38;17.55;;;;;;;;;;4985062;28;20093;-68
2023/09/09 04:42:42;;;;;;;19.80;15.25;;;;;;;;;;4995440;28;20093;-68
2023/09/09 04:45:09;;;;;;;19.40;15.20;;;;;;;;;;4989174;28;20046;-68
2023/09/09 04:47:35;;;;;;;14.23;12.48;;;;;;;;;;4996766;28;20038;-68
2023/09/09 04:50:01;;;;;;;19.13;14.80;;;;;;;;;;5018149;22;20526;-75
2023/09/09 04:52:27;;;;;;;20.33;15.75;;;;;;;;;;5006812;28;20069;-75
2023/09/09 04:54:53;;;;;;;18.40;14.23;;;;;;;;;;4992976;28;20507;-75
2023/09/09 04:57:19;;;;;;;16.38;14.07;;;;;;;;;;4987775;28;20034;-75
2023/09/09 04:59:45;;;;;;;15.95;13.25;;;;;;;;;;4990374;28;20074;-75
2023/09/09 05:02:12;;;;;;;17.48;14.95;;;;;;;;;;4989184;28;20049;-75
2023/09/09 05:04:39;;;;;;;14.63;13.13;;;;;;;;;;4991086;28;20042;-75
2023/09/09 05:07:05;;;;;;;12.23;11.02;;;;;;;;;;4991409;28;20085;-75
2023/09/09 05:09:31;;;;;;;12.80;11.50;;;;;;;;;;4989349;28;20043;-75
2023/09/09 05:11:57;;;;;;;10.00;9.10;;;;;;;;;;4990662;28;20065;-75
2023/09/09 05:14:23;;;;;;;8.60;7.90;;;;;;;;;;4992050;28;20076;-75
2023/09/09 05:16:49;;;;;;;8.48;7.78;;;;;;;;;;4990870;28;20093;-75
2023/09/09 05:19:15;;;;;;;9.18;8.38;;;;;;;;;;4989735;28;20500;-75
2023/09/09 05:21:41;;;;;;;12.32;8.68;;;;;;;;;;4981072;28;20456;-75
2023/09/09 05:24:07;;;;;;;13.80;10.35;;;;;;;;;;4979678;28;20034;-75
2023/09/09 05:26:33;;;;;;;11.00;9.82;;;;;;;;;;4992692;28;20178;-75
2023/09/09 05:29:01;;;;;;;12.52;11.23;;;;;;;;;;4994683;28;20042;-75
2023/09/09 05:31:27;;;;;;;14.15;12.43;;;;;;;;;;4992956;28;20046;-75
2023/09/09 05:33:53;;;;;;;19.20;14.38;;;;;;;;;;4993196;28;20122;-75
2023/09/09 05:36:19;;;;;;;18.60;16.05;;;;;;;;;;4993229;28;20121;-75
2023/09/09 05:38:45;;;;;;;16.25;13.75;;;;;;;;;;4992068;28;20575;-75
2023/09/09 05:41:11;;;;;;;18.65;14.10;;;;;;;;;;4986958;28;20050;-75
2023/09/09 05:43:37;;;;;;;19.45;14.82;;;;;;;;;;4992286;28;20109;-75
2023/09/09 05:46:03;;;;;;;17.40;13.77;;;;;;;;;;4994667;28;20630;-75
2023/09/09 05:48:30;;;;;;;17.70;14.45;;;;;;;;;;4994541;28;20042;-75
2023/09/09 05:50:56;;;;;;;16.67;14.65;;;;;;;;;;4982620;28;20073;-75
2023/09/09 05:53:22;;;;;;;17.33;14.38;;;;;;;;;;4990763;28;20439;-75
2023/09/09 05:55:48;;;;;;;16.90;14.75;;;;;;;;;;4992933;28;20054;-75
2023/09/09 05:58:14;;;;;;;16.40;14.60;;;;;;;;;;4995053;28;20041;-75
2023/09/09 06:00:40;;;;;;;16.38;14.60;;;;;;;;;;4985367;28;20070;-75
2023/09/09 06:03:06;;;;;;;21.52;16.65;;;;;;;;;;4991820;28;20042;-75
2023/09/09 06:05:32;;;;;;;19.85;16.67;;;;;;;;;;4994232;28;20041;-74
2023/09/09 06:07:59;;;;;;;36.38;28.27;;;;;;;;;;4992858;28;20431;-74
2023/09/09 06:10:25;;;;;;;33.25;26.83;;;;;;;;;;4982936;28;20039;-74
2023/09/09 06:12:51;;;;;;;34.65;27.73;;;;;;;;;;4995364;28;20398;-74
2023/09/09 06:15:17;;;;;;;29.55;24.35;;;;;;;;;;4993645;28;20034;-74
2023/09/09 06:17:43;;;;;;;40.70;29.40;;;;;;;;;;4990889;28;20035;-74
2023/09/09 06:20:09;;;;;;;37.70;29.42;;;;;;;;;;4988014;28;20034;-74
2023/09/09 06:22:36;;;;;;;36.03;27.40;;;;;;;;;;4987949;28;20041;-74
2023/09/09 06:25:02;;;;;;;29.63;24.00;;;;;;;;;;4989114;28;20484;-74
2023/09/09 06:27:28;;;;;;;31.35;25.52;;;;;;;;;;4988181;28;20046;-74
2023/09/09 06:29:54;;;;;;;33.92;27.02;;;;;;;;;;4990353;28;20073;-74
2023/09/09 06:32:20;;;;;;;39.67;29.08;;;;;;;;;;4993436;28;20507;-74
2023/09/09 06:34:46;;;;;;;39.20;31.77;;;;;;;;;;4993361;28;20042;-74
2023/09/09 06:37:12;;;;;;;41.97;32.50;;;;;;;;;;4993719;28;20575;-74
2023/09/09 06:39:38;;;;;;;41.97;32.30;;;;;;;;;;4987051;28;20034;-74
2023/09/09 06:42:06;;;;;;;43.28;32.50;;;;;;;;;;4993528;28;20389;-75
2023/09/09 06:44:32;;;;;;;41.97;31.88;;;;;;;;;;4993825;28;20448;-75
2023/09/09 06:46:58;;;;;;;42.53;33.17;;;;;;;;;;4986804;28;20165;-74
2023/09/09 06:49:24;;;;;;;44.33;34.17;;;;;;;;;;4987513;28;20089;-74
2023/09/09 06:51:50;;;;;;;46.63;34.55;;;;;;;;;;4989949;28;20574;-74
2023/09/09 06:54:16;;;;;;;43.22;33.72;;;;;;;;;;4993457;28;20055;-74
2023/09/09 06:56:42;;;;;;;44.85;33.72;;;;;;;;;;4990360;28;20480;-74
2023/09/09 06:59:08;;;;;;;42.67;32.78;;;;;;;;;;4988545;28;20174;-74
2023/09/09 07:01:35;;;;;;;44.47;33.80;;;;;;;;;;4985644;28;20045;-74
2023/09/09 07:04:01;;;;;;;42.63;31.58;;;;;;;;;;4987969;28;20134;-74
2023/09/09 07:06:27;;;;;;;43.40;32.22;;;;;;;;;;4993021;28;20507;-74
2023/09/09 07:08:53;;;;;;;39.55;31.00;;;;;;;;;;4993335;28;20034;-74
2023/09/09 07:11:19;;;;;;;41.90;32.22;;;;;;;;;;4989656;28;20039;-75
2023/09/09 07:13:45;;;;;;;42.90;32.28;;;;;;;;;;4982264;28;20066;-75
2023/09/09 07:16:11;;;;;;;40.53;32.00;;;;;;;;;;4986375;28;20046;-75
2023/09/09 07:18:37;;;;;;;41.92;31.20;;;;;;;;;;4988734;28;20564;-75
2023/09/09 07:21:03;;;;;;;42.22;32.40;;;;;;;;;;4984700;28;20052;-75
2023/09/09 07:23:29;;;;;;;47.78;38.47;;;;;;;;;;4988209;28;20038;-75
2023/09/09 07:25:55;;;;;;;49.50;37.75;;;;;;;;;;4982707;28;20031;-75
2023/09/09 07:28:23;;;;;;;49.67;37.90;;;;;;;;;;4990402;28;20587;-73
2023/09/09 07:30:49;;;;;;;56.08;43.35;;;;;;;;;;4988316;28;20444;-73
2023/09/09 07:33:15;;;;;;;66.22;47.85;;;;;;;;;;4990840;28;20042;-73
2023/09/09 07:35:42;;;;;;;69.00;50.97;;;;;;;;;;4986704;28;20408;-73
2023/09/09 07:38:08;;;;;;;69.30;53.55;;;;;;;;;;4991832;28;20065;-73
2023/09/09 07:40:34;;;;;;;70.80;52.65;;;;;;;;;;4987856;28;20096;-73
2023/09/09 07:43:00;;;;;;;72.72;54.88;;;;;;;;;;4988871;28;20516;-73
2023/09/09 07:45:27;;;;;;;76.20;58.10;;;;;;;;;;4988310;28;20437;-73
2023/09/09 07:47:53;;;;;;;78.13;58.33;;;;;;;;;;4978213;28;20035;-73
2023/09/09 07:50:19;;;;;;;75.47;58.17;;;;;;;;;;4974041;28;20137;-73
2023/09/09 07:52:45;;;;;;;73.43;54.33;;;;;;;;;;4967735;28;20042;-73
2023/09/09 07:55:11;;;;;;;60.67;44.28;;;;;;;;;;4980491;28;20049;-71
2023/09/09 07:57:37;;;;;;;56.30;41.10;;;;;;;;;;4987007;28;20745;-71
2023/09/09 08:00:05;;;;;;;46.67;36.05;;;;;;;;;;4982686;28;20126;-72
2023/09/09 08:02:31;;;;;;;48.42;36.45;;;;;;;;;;4980497;28;20081;-72
2023/09/09 08:04:57;;;;;;;40.92;31.55;;;;;;;;;;4975465;28;20159;-72
2023/09/09 08:07:23;;;;;;;38.67;30.27;;;;;;;;;;4986236;28;20034;-72
2023/09/09 08:09:49;;;;;;;39.60;30.75;;;;;;;;;;4984979;28;20455;-73
2023/09/09 08:12:15;;;;;;;38.63;31.73;;;;;;;;;;4988837;28;20042;-73
2023/09/09 08:14:42;;;;;;;38.75;30.00;;;;;;;;;;4986529;28;20066;-73
2023/09/09 08:17:08;;;;;;;39.05;30.13;;;;;;;;;;4986305;28;20125;-73
2023/09/09 08:19:34;;;;;;;45.35;31.27;;;;;;;;;;4988510;28;20066;-73
2023/09/09 08:22:00;;;;;;;37.50;30.17;;;;;;;;;;4985252;28;20076;-73
2023/09/09 08:24:26;;;;;;;36.83;28.83;;;;;;;;;;4985176;28;20042;-73
2023/09/09 08:26:52;;;;;;;37.65;29.75;;;;;;;;;;4989268;28;20042;-74
2023/09/09 08:29:18;;;;;;;36.85;29.35;;;;;;;;;;4988907;28;20044;-74
2023/09/09 08:31:47;;;;;;;39.35;29.17;;;;;;;;;;4988002;28;20049;-74
2023/09/09 08:34:13;;;;;;;41.50;30.33;;;;;;;;;;4988240;28;20046;-74
2023/09/09 08:36:39;;;;;;;40.38;29.88;;;;;;;;;;4988750;28;20042;-74
2023/09/09 08:39:05;;;;;;;38.03;30.58;;;;;;;;;;4987324;28;20042;-74
2023/09/09 08:41:41;;;;;;;38.80;28.25;;;;;;;;;;4992441;28;20098;-74
2023/09/09 08:44:12;;;;;;;38.83;30.33;;;;;;;;;;4991600;28;20380;-74
2023/09/09 08:46:38;;;;;;;39.53;29.88;;;;;;;;;;4984201;28;20392;-74
2023/09/09 08:49:05;;;;;;;35.88;28.83;;;;;;;;;;4988116;28;20042;-74
2023/09/09 08:51:43;;;;;;;34.90;27.67;;;;;;;;;;4990053;28;20049;-74
2023/09/09 08:54:11;;;;;;;39.10;28.95;;;;;;;;;;4988981;28;20038;-74
2023/09/09 08:56:37;;;;;;;37.03;29.15;;;;;;;;;;4991138;28;20035;-74
2023/09/09 08:59:03;;;;;;;36.42;29.25;;;;;;;;;;4983794;28;20510;-74
2023/09/09 09:01:31;;;;;;;35.65;29.88;;;;;;;;;;4990312;28;20037;-73
2023/09/09 09:03:57;;;;;;;39.78;30.77;;;;;;;;;;4987533;28;20128;-73
2023/09/09 09:06:23;;;;;;;37.15;29.02;;;;;;;;;;4995828;28;20046;-73
2023/09/09 09:08:49;;;;;;;38.67;27.98;;;;;;;;;;4995732;28;20038;-73
2023/09/09 09:11:17;;;;;;;36.90;28.83;;;;;;;;;;4995914;28;20444;-73
2023/09/09 09:13:43;;;;;;;35.47;28.60;;;;;;;;;;4995584;28;20065;-73
2023/09/09 09:16:09;;;;;;;36.95;29.88;;;;;;;;;;4995396;28;20042;-73
2023/09/09 09:18:36;;;;;;;39.58;29.95;;;;;;;;;;4995857;28;20134;-73
2023/09/09 09:21:06;;;;;;;39.80;28.52;;;;;;;;;;4987859;28;20452;-73
2023/09/09 09:23:32;;;;;;;36.28;27.63;;;;;;;;;;4995544;28;20050;-73
2023/09/09 09:25:58;;;;;;;36.45;29.50;;;;;;;;;;4995608;28;20116;-73
2023/09/09 09:28:28;;;;;;;36.15;29.10;;;;;;;;;;4995509;28;20077;-73
2023/09/09 09:30:54;;;;;;;34.22;27.88;;;;;;;;;;4995797;28;20096;-73
2023/09/09 09:33:26;;;;;;;37.15;27.52;;;;;;;;;;4994802;28;20444;-73
2023/09/09 09:35:52;;;;;;;34.22;26.98;;;;;;;;;;4995565;28;20043;-74
2023/09/09 09:38:18;;;;;;;37.00;29.00;;;;;;;;;;4995147;28;20125;-74
2023/09/09 09:40:44;;;;;;;36.05;28.77;;;;;;;;;;4995539;28;20046;-74
2023/09/09 09:43:17;;;;;;;36.35;28.58;;;;;;;;;;4995105;28;20074;-74
2023/09/09 09:45:43;;;;;;;34.88;27.70;;;;;;;;;;4995099;28;20142;-74
2023/09/09 09:48:09;;;;;;;37.85;25.83;;;;;;;;;;4995665;28;20123;-74
2023/09/09 09:50:36;;;;;;;31.88;27.73;;;;;;;;;;5001972;28;20042;-74
2023/09/09 09:53:03;;;;;;;36.42;28.38;;;;;;;;;;4987377;28;20404;-74
2023/09/09 09:55:30;;;;;;;40.05;29.27;;;;;;;;;;4994890;28;20053;-74
2023/09/09 09:57:58;;;;;;;34.10;27.05;;;;;;;;;;4997259;28;20054;-74
2023/09/09 10:00:24;;;;;;;32.13;27.20;;;;;;;;;;4985774;28;20645;-74
2023/09/09 10:02:52;;;;;;;38.35;28.27;;;;;;;;;;4975871;28;20078;-74
2023/09/09 10:05:20;;;;;;;34.10;27.00;;;;;;;;;;4990095;28;20066;-74
2023/09/09 10:07:50;;;;;;;37.78;27.67;;;;;;;;;;4994453;28;20039;-74
2023/09/09 10:10:17;;;;;;;32.83;25.15;;;;;;;;;;4987140;28;20042;-74
2023/09/09 10:12:51;;;;;;;39.03;28.73;;;;;;;;;;4994848;28;20042;-74
2023/09/09 10:15:17;;;;;;;33.65;26.73;;;;;;;;;;4994774;28;20088;-74
2023/09/09 10:17:44;;;;;;;37.72;29.63;;;;;;;;;;4994510;28;20511;-74
2023/09/09 10:20:11;;;;;;;39.10;28.73;;;;;;;;;;4994566;28;20081;-74
2023/09/09 10:22:37;;;;;;;36.65;29.35;;;;;;;;;;4994372;28;20043;-74
2023/09/09 10:25:04;;;;;;;36.35;28.35;;;;;;;;;;4994066;28;20038;-74
2023/09/09 10:27:30;;;;;;;34.58;28.13;;;;;;;;;;4994427;28;20397;-74
2023/09/09 10:29:58;;;;;;;32.33;26.05;;;;;;;;;;4994834;28;20093;-74
2023/09/09 10:32:25;;;;;;;46.50;29.17;;;;;;;;;;4994150;28;20049;-74
2023/09/09 10:34:53;;;;;;;34.85;27.33;;;;;;;;;;4994102;28;20400;-74
2023/09/09 10:37:19;;;;;;;31.83;25.70;;;;;;;;;;4994384;28;20053;-74
2023/09/09 10:39:48;;;;;;;33.08;27.80;;;;;;;;;;4993759;28;20038;-74
2023/09/09 10:42:16;;;;;;;32.65;26.60;;;;;;;;;;4994510;28;20118;-74
2023/09/09 10:44:47;;;;;;;33.30;26.55;;;;;;;;;;4994105;28;20070;-74
2023/09/09 10:47:15;;;;;;;30.10;24.80;;;;;;;;;;4998873;28;20040;-74
2023/09/09 10:49:41;;;;;;;31.58;23.52;;;;;;;;;;5026364;23;20389;-67
2023/09/09 10:52:07;;;;;;;33.88;24.90;;;;;;;;;;5031739;28;20045;-67
2023/09/09 10:54:34;;;;;;;31.80;22.35;;;;;;;;;;5033054;28;20108;-68
2023/09/09 10:57:02;;;;;;;25.35;20.77;;;;;;;;;;5031437;28;20048;-68
2023/09/09 10:59:30;;;;;;;28.42;21.88;;;;;;;;;;5033159;28;20045;-68
2023/09/09 11:02:10;;;;;;;31.83;24.48;;;;;;;;;;5015442;28;20049;-68
2023/09/09 11:04:40;;;;;;;30.17;25.75;;;;;;;;;;5029327;28;20046;-68
2023/09/09 11:07:07;;;;;;;28.70;22.33;;;;;;;;;;5032951;28;20033;-68
2023/09/09 11:09:34;;;;;;;35.03;25.00;;;;;;;;;;5033111;28;20064;-68
2023/09/09 11:12:00;;;;;;;27.85;22.95;;;;;;;;;;5033538;28;20051;-68
2023/09/09 11:14:31;;;;;;;33.42;26.25;;;;;;;;;;5032346;28;20037;-68
2023/09/09 11:16:57;;;;;;;31.40;24.58;;;;;;;;;;5032937;28;20048;-68
2023/09/09 11:19:24;;;;;;;31.40;24.25;;;;;;;;;;5032546;28;20029;-68
2023/09/09 11:21:52;;;;;;;30.90;23.90;;;;;;;;;;5031523;28;20042;-68
2023/09/09 11:24:18;;;;;;;28.58;22.08;;;;;;;;;;5018182;28;20029;-68
2023/09/09 11:26:45;;;;;;;25.50;20.38;;;;;;;;;;5032300;28;20037;-68
2023/09/09 11:29:11;;;;;;;26.33;19.08;;;;;;;;;;5031411;28;20041;-68
2023/09/09 11:31:37;;;;;;;23.13;17.63;;;;;;;;;;5033027;28;20045;-68
2023/09/09 11:34:05;;;;;;;17.90;14.95;;;;;;;;;;5032583;28;20406;-68
2023/09/09 11:36:31;;;;;;;15.40;12.27;;;;;;;;;;5032252;28;20116;-68
2023/09/09 11:38:59;;;;;;;18.40;15.57;;;;;;;;;;5032331;28;20133;-68
2023/09/09 11:41:26;;;;;;;23.20;15.50;;;;;;;;;;5032267;28;20453;-68
2023/09/09 11:44:05;;;;;;;17.85;15.48;;;;;;;;;;5032718;28;20037;-68
2023/09/09 11:46:47;;;;;;;20.20;16.50;;;;;;;;;;5031295;28;20038;-68
2023/09/09 11:49:13;;;;;;;18.08;13.50;;;;;;;;;;5032615;28;20103;-68
2023/09/09 11:51:39;;;;;;;20.55;12.93;;;;;;;;;;5032376;28;20045;-68
2023/09/09 11:54:06;;;;;;;19.48;13.13;;;;;;;;;;5031999;28;20040;-68
2023/09/09 11:56:33;;;;;;;17.98;11.68;;;;;;;;;;5031786;28;20042;-68
2023/09/09 11:58:59;;;;;;;15.05;12.05;;;;;;;;;;5032293;28;20045;-68
2023/09/09 12:01:25;;;;;;;16.65;12.43;;;;;;;;;;5032553;28;20080;-68
2023/09/09 12:03:51;;;;;;;17.20;12.57;;;;;;;;;;5027575;28;20039;-68
2023/09/09 12:06:21;;;;;;;19.77;14.43;;;;;;;;;;5031797;28;20037;-68
2023/09/09 12:08:48;;;;;;;21.52;13.23;;;;;;;;;;5032350;28;20033;-68
2023/09/09 12:11:16;;;;;;;17.70;12.30;;;;;;;;;;5032346;28;20484;-68
2023/09/09 12:13:42;;;;;;;17.35;12.40;;;;;;;;;;5023626;28;20057;-68
2023/09/09 12:16:09;;;;;;;18.25;11.40;;;;;;;;;;5015583;28;20041;-68
2023/09/09 12:18:36;;;;;;;16.83;11.48;;;;;;;;;;5030894;28;20045;-68
2023/09/09 12:21:03;;;;;;;18.30;11.23;;;;;;;;;;5031103;28;20406;-68
2023/09/09 12:23:30;;;;;;;16.02;10.43;;;;;;;;;;5032110;28;20033;-68
2023/09/09 12:25:56;;;;;;;16.63;12.23;;;;;;;;;;5031735;28;20042;-68
2023/09/09 12:28:23;;;;;;;12.88;10.82;;;;;;;;;;5031598;28;20091;-68
2023/09/09 12:30:51;;;;;;;17.20;11.68;;;;;;;;;;5015411;28;20041;-68
2023/09/09 12:33:17;;;;;;;19.98;11.63;;;;;;;;;;5036270;28;20395;-68
2023/09/09 12:35:43;;;;;;;17.05;11.70;;;;;;;;;;5035725;28;20483;-68
2023/09/09 12:38:14;;;;;;;17.05;10.60;;;;;;;;;;5034669;28;20075;-69
2023/09/09 12:40:46;;;;;;;17.20;10.77;;;;;;;;;;5035622;28;20053;-69
2023/09/09 12:43:12;;;;;;;15.40;12.20;;;;;;;;;;5036477;28;20080;-69
2023/09/09 12:45:46;;;;;;;17.63;12.73;;;;;;;;;;5035054;28;20041;-69
2023/09/09 12:48:12;;;;;;;15.77;11.15;;;;;;;;;;5036104;28;20048;-69
2023/09/09 12:50:38;;;;;;;15.23;11.27;;;;;;;;;;5035556;28;20390;-69
2023/09/09 12:53:04;;;;;;;15.65;11.98;;;;;;;;;;5032473;28;20490;-69
2023/09/09 12:55:30;;;;;;;14.20;11.65;;;;;;;;;;5021374;28;20048;-69
2023/09/09 12:57:56;;;;;;;14.20;11.32;;;;;;;;;;5035949;28;20077;-69
2023/09/09 13:00:22;;;;;;;20.13;12.75;;;;;;;;;;5035829;28;20480;-69
2023/09/09 13:02:48;;;;;;;13.38;10.75;;;;;;;;;;5035350;28;20040;-69
2023/09/09 13:05:14;;;;;;;16.88;11.27;;;;;;;;;;5030680;28;20136;-69
2023/09/09 13:07:40;;;;;;;17.00;11.48;;;;;;;;;;5035327;28;20071;-69
2023/09/09 13:10:07;;;;;;;13.30;9.98;;;;;;;;;;5034711;28;20064;-69
2023/09/09 13:12:33;;;;;;;12.77;10.63;;;;;;;;;;5035163;28;20560;-69
2023/09/09 13:14:59;;;;;;;12.98;9.75;;;;;;;;;;5035356;28;20045;-69
2023/09/09 13:17:25;;;;;;;14.02;9.75;;;;;;;;;;5035265;28;20099;-69
2023/09/09 13:19:51;;;;;;;12.55;8.93;;;;;;;;;;5034688;28;20505;-69
2023/09/09 13:22:17;;;;;;;10.40;8.63;;;;;;;;;;5035065;28;20040;-69
2023/09/09 13:24:43;;;;;;;11.45;8.43;;;;;;;;;;5035199;28;20380;-69
2023/09/09 13:27:09;;;;;;;11.73;9.00;;;;;;;;;;5034308;28;20029;-69
2023/09/09 13:29:35;;;;;;;11.45;8.80;;;;;;;;;;5035495;28;20044;-69
2023/09/09 13:32:02;;;;;;;11.05;8.23;;;;;;;;;;5034640;28;20084;-69
2023/09/09 13:34:28;;;;;;;10.63;8.38;;;;;;;;;;5035142;28;20041;-69
2023/09/09 13:36:54;;;;;;;10.15;7.70;;;;;;;;;;5033786;28;20095;-69
2023/09/09 13:39:20;;;;;;;8.07;7.28;;;;;;;;;;5035240;28;20387;-69
2023/09/09 13:41:46;;;;;;;7.97;7.00;;;;;;;;;;5035036;28;20080;-69
2023/09/09 13:44:12;;;;;;;9.43;7.43;;;;;;;;;;5034289;28;20033;-69
2023/09/09 13:46:38;;;;;;;9.80;7.28;;;;;;;;;;5034292;28;20506;-69
2023/09/09 13:49:04;;;;;;;11.13;7.70;;;;;;;;;;5034769;28;20037;-69
2023/09/09 13:51:30;;;;;;;8.50;7.70;;;;;;;;;;5034287;28;20041;-70
2023/09/09 13:53:56;;;;;;;10.30;7.65;;;;;;;;;;5034632;28;20483;-69
2023/09/09 13:56:22;;;;;;;11.57;7.35;;;;;;;;;;5034168;28;20103;-69
2023/09/09 13:58:48;;;;;;;8.10;7.15;;;;;;;;;;5034775;28;20440;-69
2023/09/09 14:01:14;;;;;;;8.43;7.57;;;;;;;;;;5033335;28;20045;-69
2023/09/09 14:03:40;;;;;;;9.95;7.78;;;;;;;;;;5031258;28;20041;-69
2023/09/09 14:06:08;;;;;;;10.20;7.78;;;;;;;;;;5032205;28;20046;-69
2023/09/09 14:08:34;;;;;;;9.13;7.32;;;;;;;;;;5034079;28;20132;-69
2023/09/09 14:11:00;;;;;;;10.95;7.72;;;;;;;;;;5034163;28;20085;-69
2023/09/09 14:13:26;;;;;;;9.75;7.32;;;;;;;;;;5034258;28;20423;-69
2023/09/09 14:15:52;;;;;;;8.55;6.88;;;;;;;;;;5033474;28;20047;-69